This is the latest recevied weather packets stored in our database for station/object NT9G. If no packets are shown the sender has not sent any weather packets the latest 10 day(s).
| Time | Temp. | Humidity | Pressure | Rain* | Wind** | Luminosity | Snow |
|---|---|---|---|---|---|---|---|
| 1777955407 | 16.67° C | 65% | 1002.8 hPa | 0.76 mm | - | - | - |
| 1777955106 | 16.67° C | 65% | 1002.7 hPa | 0.76 mm | - | - | - |
| 1777954806 | 16.67° C | 65% | 1002.6 hPa | 0.76 mm | - | - | - |
| 1777954506 | 16.67° C | 66% | 1002.6 hPa | 0.76 mm | - | - | - |
| 1777954207 | 16.67° C | 66% | 1002.4 hPa | 0.76 mm | - | - | - |
| 1777953905 | 17.22° C | 66% | 1002.2 hPa | 0.76 mm | - | - | - |
| 1777953605 | 17.22° C | 67% | 1002.1 hPa | 0.76 mm | - | - | - |
| 1777953305 | 17.22° C | 67% | 1002.2 hPa | 0.76 mm | - | - | - |
| 1777952705 | 17.22° C | 66% | 1002.5 hPa | 0.51 mm | - | - | - |
| 1777952404 | 17.22° C | 67% | 1002.6 hPa | 0.51 mm | - | - | - |
| 1777951803 | 17.22° C | 68% | 1002.4 hPa | 0.51 mm | - | - | - |
| 1777951504 | 17.22° C | 69% | 1002.3 hPa | 0.51 mm | - | - | - |
| 1777950303 | 17.22° C | 66% | 1001.8 hPa | 0.25 mm | - | - | - |
| 1777950003 | 17.22° C | 66% | 1001.8 hPa | 0.25 mm | - | - | - |
| 1777948802 | 17.78° C | 61% | 1001.3 hPa | 0.25 mm | - | - | - |
| 1777948200 | 17.78° C | 58% | 1001.9 hPa | 0.25 mm | - | - | - |
| 1777946398 | 16.11° C | 73% | 1001.7 hPa | 0.25 mm | - | - | - |
| 1777945197 | 18.89° C | 62% | 1002 hPa | 0 mm | - | - | - |
| 1777944896 | 18.89° C | 61% | 1000.9 hPa | 0 mm | - | - | - |
| 1777943697 | 19.44° C | 58% | 1000.8 hPa | 0 mm | - | - | - |
| 1777943395 | 19.44° C | 58% | 1000.8 hPa | 0 mm | - | - | - |
| 1777942496 | 20.56° C | 49% | 1000.5 hPa | 0 mm | - | - | - |
| 1777932284 | 28.33° C | 29% | 999.8 hPa | 0 mm | - | - | - |
| 1777930783 | 28.33° C | 27% | 1000.2 hPa | 0 mm | - | - | - |
| 1777930182 | 28.33° C | 27% | 1000.3 hPa | 0 mm | - | - | - |
* Rain since midnight (hover to see other rain measurements)
** Current wind speed in m/s (hover to see current wind gust speed)